Richmond South's Hourly Summary for Thursday, July 5, 2018
Hour Temp
(f)
RH
(%)
Solar Rad.
(MJ/m2)
Rainfall
(in)
Wind
(mph)
7/5/2018 12:00 AM 71 93 0 0 0.34
7/5/2018 1:00 AM 71 94 0 0 1.11
7/5/2018 2:00 AM 71 95 0 0 0.46
7/5/2018 3:00 AM 71 95 0 0 0.52
7/5/2018 4:00 AM 71 95 0 0 0.51
7/5/2018 5:00 AM 71 96 0 0 0.47
7/5/2018 6:00 AM 71 96 0 0 0.8
7/5/2018 7:00 AM 72 97 0.05 0 0.74
7/5/2018 8:00 AM 74 94 0.44 0 2.16
7/5/2018 9:00 AM 78 83 0.68 0 3.14
7/5/2018 10:00 AM 82 73 0.96 0 3.55
7/5/2018 11:00 AM 84 66 2.57 0 4.3
7/5/2018 12:00 PM 86 61 2.37 0 4.11
7/5/2018 1:00 PM 87 57 2.16 0 5.16
7/5/2018 2:00 PM 77 64 0.49 0 8.31
7/5/2018 3:00 PM 76 88 0.55 0.1 1.36
7/5/2018 4:00 PM 77 89 0.31 0.02 1.07
7/5/2018 5:00 PM 78 77 1.06 0 2.04
7/5/2018 6:00 PM 86 59 1.81 0 1.62
7/5/2018 7:00 PM 88 56 1.17 0 0.48
7/5/2018 8:00 PM 84 67 0.24 0 0.01
7/5/2018 9:00 PM 81 74 0.06 0 0.12
7/5/2018 10:00 PM 79 83 0 0 0.94
7/5/2018 11:00 PM 80 61 0 0 5.08
Data Summary 77 79 14.92 0.12 2.02